sensor_id;sensor_type;location;lat;lon;timestamp;temperature;humidity
1367;DHT22;16877;48.810;9.282;2023-07-20T00:02:03;30.60;41.50
1367;DHT22;16877;48.810;9.282;2023-07-20T00:04:31;30.60;41.50
1367;DHT22;16877;48.810;9.282;2023-07-20T00:06:58;30.50;41.50
1367;DHT22;16877;48.810;9.282;2023-07-20T00:09:26;30.60;41.60
1367;DHT22;16877;48.810;9.282;2023-07-20T00:11:54;30.50;41.60
1367;DHT22;16877;48.810;9.282;2023-07-20T00:14:22;30.50;41.60
1367;DHT22;16877;48.810;9.282;2023-07-20T00:16:51;30.50;41.70
1367;DHT22;16877;48.810;9.282;2023-07-20T00:19:23;30.50;41.80
1367;DHT22;16877;48.810;9.282;2023-07-20T00:21:51;30.50;41.80
1367;DHT22;16877;48.810;9.282;2023-07-20T00:24:22;30.50;41.90
1367;DHT22;16877;48.810;9.282;2023-07-20T00:27:04;30.40;41.80
1367;DHT22;16877;48.810;9.282;2023-07-20T00:29:32;30.40;41.80
1367;DHT22;16877;48.810;9.282;2023-07-20T00:31:59;30.40;41.80
1367;DHT22;16877;48.810;9.282;2023-07-20T00:34:26;30.40;41.80
1367;DHT22;16877;48.810;9.282;2023-07-20T00:36:53;30.30;41.80
1367;DHT22;16877;48.810;9.282;2023-07-20T00:39:21;30.30;41.70
1367;DHT22;16877;48.810;9.282;2023-07-20T00:41:48;30.30;41.60
1367;DHT22;16877;48.810;9.282;2023-07-20T00:44:17;30.20;41.40
1367;DHT22;16877;48.810;9.282;2023-07-20T00:46:44;30.20;41.20
1367;DHT22;16877;48.810;9.282;2023-07-20T00:49:12;30.20;41.00
1367;DHT22;16877;48.810;9.282;2023-07-20T00:51:40;30.10;41.10
1367;DHT22;16877;48.810;9.282;2023-07-20T00:54:07;30.10;40.90
1367;DHT22;16877;48.810;9.282;2023-07-20T00:56:35;30.10;41.50
1367;DHT22;16877;48.810;9.282;2023-07-20T00:59:04;30.10;40.90
1367;DHT22;16877;48.810;9.282;2023-07-20T01:01:48;30.00;40.90
1367;DHT22;16877;48.810;9.282;2023-07-20T01:04:15;29.90;40.70
1367;DHT22;16877;48.810;9.282;2023-07-20T01:06:51;29.90;40.70
1367;DHT22;16877;48.810;9.282;2023-07-20T01:09:26;29.80;40.60
1367;DHT22;16877;48.810;9.282;2023-07-20T01:12:02;29.80;40.70
1367;DHT22;16877;48.810;9.282;2023-07-20T01:14:32;29.80;40.70
1367;DHT22;16877;48.810;9.282;2023-07-20T01:17:01;29.70;40.70
1367;DHT22;16877;48.810;9.282;2023-07-20T01:19:35;29.70;40.80
1367;DHT22;16877;48.810;9.282;2023-07-20T01:22:30;29.70;40.80
1367;DHT22;16877;48.810;9.282;2023-07-20T01:25:23;29.70;40.80
1367;DHT22;16877;48.810;9.282;2023-07-20T01:28:12;29.70;40.90
1367;DHT22;16877;48.810;9.282;2023-07-20T01:31:13;29.70;41.00
1367;DHT22;16877;48.810;9.282;2023-07-20T01:33:42;29.60;41.00
1367;DHT22;16877;48.810;9.282;2023-07-20T01:36:11;29.60;41.00
1367;DHT22;16877;48.810;9.282;2023-07-20T01:38:39;29.60;41.10
1367;DHT22;16877;48.810;9.282;2023-07-20T01:41:08;29.60;41.10
1367;DHT22;16877;48.810;9.282;2023-07-20T01:43:36;29.60;41.10
1367;DHT22;16877;48.810;9.282;2023-07-20T01:46:03;29.60;41.20
1367;DHT22;16877;48.810;9.282;2023-07-20T01:48:32;29.60;41.20
1367;DHT22;16877;48.810;9.282;2023-07-20T01:51:00;29.60;41.20
1367;DHT22;16877;48.810;9.282;2023-07-20T01:53:31;29.60;41.30
1367;DHT22;16877;48.810;9.282;2023-07-20T01:55:59;29.60;41.40
1367;DHT22;16877;48.810;9.282;2023-07-20T01:58:26;29.50;41.40
1367;DHT22;16877;48.810;9.282;2023-07-20T02:00:53;29.50;41.40
1367;DHT22;16877;48.810;9.282;2023-07-20T02:03:21;29.50;41.50
1367;DHT22;16877;48.810;9.282;2023-07-20T02:05:51;29.50;41.60
1367;DHT22;16877;48.810;9.282;2023-07-20T02:08:18;29.50;41.60
1367;DHT22;16877;48.810;9.282;2023-07-20T02:10:47;29.50;41.60
1367;DHT22;16877;48.810;9.282;2023-07-20T02:13:14;29.50;41.70
1367;DHT22;16877;48.810;9.282;2023-07-20T02:15:42;29.40;41.70
1367;DHT22;16877;48.810;9.282;2023-07-20T02:18:24;29.40;41.80
1367;DHT22;16877;48.810;9.282;2023-07-20T02:20:54;29.40;41.90
1367;DHT22;16877;48.810;9.282;2023-07-20T02:23:21;29.40;42.00
1367;DHT22;16877;48.810;9.282;2023-07-20T02:25:52;29.40;42.10
1367;DHT22;16877;48.810;9.282;2023-07-20T02:28:20;29.40;42.10
1367;DHT22;16877;48.810;9.282;2023-07-20T02:30:47;29.40;42.20
1367;DHT22;16877;48.810;9.282;2023-07-20T02:33:15;29.40;42.60
1367;DHT22;16877;48.810;9.282;2023-07-20T02:35:43;29.40;42.20
1367;DHT22;16877;48.810;9.282;2023-07-20T02:38:11;29.30;42.20
1367;DHT22;16877;48.810;9.282;2023-07-20T02:40:39;29.40;42.30
1367;DHT22;16877;48.810;9.282;2023-07-20T02:43:06;29.30;42.20
1367;DHT22;16877;48.810;9.282;2023-07-20T02:45:35;29.30;42.20
1367;DHT22;16877;48.810;9.282;2023-07-20T02:48:07;29.30;42.30
1367;DHT22;16877;48.810;9.282;2023-07-20T02:50:35;29.30;42.30
1367;DHT22;16877;48.810;9.282;2023-07-20T02:53:02;29.30;42.40
1367;DHT22;16877;48.810;9.282;2023-07-20T02:55:33;29.20;42.40
1367;DHT22;16877;48.810;9.282;2023-07-20T02:58:01;29.20;42.50
1367;DHT22;16877;48.810;9.282;2023-07-20T03:00:28;29.20;42.60
1367;DHT22;16877;48.810;9.282;2023-07-20T03:02:56;29.20;42.60
1367;DHT22;16877;48.810;9.282;2023-07-20T03:05:23;29.10;42.50
1367;DHT22;16877;48.810;9.282;2023-07-20T03:07:51;29.10;42.40
1367;DHT22;16877;48.810;9.282;2023-07-20T03:10:22;29.10;42.60
1367;DHT22;16877;48.810;9.282;2023-07-20T03:12:51;29.10;42.60
1367;DHT22;16877;48.810;9.282;2023-07-20T03:15:19;29.10;42.60
1367;DHT22;16877;48.810;9.282;2023-07-20T03:17:46;29.00;42.70
1367;DHT22;16877;48.810;9.282;2023-07-20T03:20:14;29.00;42.60
1367;DHT22;16877;48.810;9.282;2023-07-20T03:22:41;29.00;42.60
1367;DHT22;16877;48.810;9.282;2023-07-20T03:25:09;29.00;42.70
1367;DHT22;16877;48.810;9.282;2023-07-20T03:27:36;29.00;42.80
1367;DHT22;16877;48.810;9.282;2023-07-20T03:30:09;28.90;42.80
1367;DHT22;16877;48.810;9.282;2023-07-20T03:32:37;28.90;42.80
1367;DHT22;16877;48.810;9.282;2023-07-20T03:35:05;28.90;42.90
1367;DHT22;16877;48.810;9.282;2023-07-20T03:37:33;28.90;43.00
1367;DHT22;16877;48.810;9.282;2023-07-20T03:40:02;28.90;43.10
1367;DHT22;16877;48.810;9.282;2023-07-20T03:42:30;28.90;43.10
1367;DHT22;16877;48.810;9.282;2023-07-20T03:44:57;28.90;43.20
1367;DHT22;16877;48.810;9.282;2023-07-20T03:47:26;28.90;43.40
1367;DHT22;16877;48.810;9.282;2023-07-20T03:49:53;28.90;43.50
1367;DHT22;16877;48.810;9.282;2023-07-20T03:52:21;28.80;43.50
1367;DHT22;16877;48.810;9.282;2023-07-20T03:54:49;28.90;43.50
1367;DHT22;16877;48.810;9.282;2023-07-20T03:57:17;28.90;43.60
1367;DHT22;16877;48.810;9.282;2023-07-20T03:59:45;28.90;43.60
1367;DHT22;16877;48.810;9.282;2023-07-20T04:02:13;28.90;43.70
1367;DHT22;16877;48.810;9.282;2023-07-20T04:04:42;28.80;43.70
1367;DHT22;16877;48.810;9.282;2023-07-20T04:07:10;28.80;43.80
1367;DHT22;16877;48.810;9.282;2023-07-20T04:09:37;28.80;43.80
1367;DHT22;16877;48.810;9.282;2023-07-20T04:12:06;28.90;43.90
1367;DHT22;16877;48.810;9.282;2023-07-20T04:14:33;28.90;44.00
1367;DHT22;16877;48.810;9.282;2023-07-20T04:17:01;28.80;44.00
1367;DHT22;16877;48.810;9.282;2023-07-20T04:19:29;28.90;44.00
1367;DHT22;16877;48.810;9.282;2023-07-20T04:21:58;28.90;44.00
1367;DHT22;16877;48.810;9.282;2023-07-20T04:24:26;28.90;44.10
1367;DHT22;16877;48.810;9.282;2023-07-20T04:26:53;28.90;44.10
1367;DHT22;16877;48.810;9.282;2023-07-20T04:29:20;28.90;44.00
1367;DHT22;16877;48.810;9.282;2023-07-20T04:31:48;28.90;44.00
1367;DHT22;16877;48.810;9.282;2023-07-20T04:34:15;28.90;44.00
1367;DHT22;16877;48.810;9.282;2023-07-20T04:36:43;28.90;44.00
1367;DHT22;16877;48.810;9.282;2023-07-20T04:39:12;28.90;44.00
1367;DHT22;16877;48.810;9.282;2023-07-20T04:41:41;28.90;43.90
1367;DHT22;16877;48.810;9.282;2023-07-20T04:44:08;29.00;44.10
1367;DHT22;16877;48.810;9.282;2023-07-20T04:46:36;29.00;44.00
1367;DHT22;16877;48.810;9.282;2023-07-20T04:49:06;29.00;44.00
1367;DHT22;16877;48.810;9.282;2023-07-20T04:51:33;29.00;43.90
1367;DHT22;16877;48.810;9.282;2023-07-20T04:54:01;29.00;44.00
1367;DHT22;16877;48.810;9.282;2023-07-20T04:56:31;29.00;44.00
1367;DHT22;16877;48.810;9.282;2023-07-20T04:59:03;29.00;44.00
1367;DHT22;16877;48.810;9.282;2023-07-20T05:01:33;29.00;43.90
1367;DHT22;16877;48.810;9.282;2023-07-20T05:04:13;29.00;43.90
1367;DHT22;16877;48.810;9.282;2023-07-20T05:06:48;29.10;43.90
1367;DHT22;16877;48.810;9.282;2023-07-20T05:09:17;29.10;43.90
1367;DHT22;16877;48.810;9.282;2023-07-20T05:11:49;29.10;43.90
1367;DHT22;16877;48.810;9.282;2023-07-20T05:14:18;29.10;43.90
1367;DHT22;16877;48.810;9.282;2023-07-20T05:16:50;29.10;43.80
1367;DHT22;16877;48.810;9.282;2023-07-20T05:19:17;29.10;43.80
1367;DHT22;16877;48.810;9.282;2023-07-20T05:21:45;29.20;43.80
1367;DHT22;16877;48.810;9.282;2023-07-20T05:24:13;29.20;43.80
1367;DHT22;16877;48.810;9.282;2023-07-20T05:26:40;29.20;43.80
1367;DHT22;16877;48.810;9.282;2023-07-20T05:29:09;29.20;43.60
1367;DHT22;16877;48.810;9.282;2023-07-20T05:31:36;29.20;43.60
1367;DHT22;16877;48.810;9.282;2023-07-20T05:34:04;29.30;43.70
1367;DHT22;16877;48.810;9.282;2023-07-20T05:36:31;29.30;43.70
1367;DHT22;16877;48.810;9.282;2023-07-20T05:38:59;29.30;43.60
1367;DHT22;16877;48.810;9.282;2023-07-20T05:41:26;29.30;43.60
1367;DHT22;16877;48.810;9.282;2023-07-20T05:43:54;29.40;43.60
1367;DHT22;16877;48.810;9.282;2023-07-20T05:46:27;29.40;43.70
1367;DHT22;16877;48.810;9.282;2023-07-20T05:48:59;29.40;43.70
1367;DHT22;16877;48.810;9.282;2023-07-20T05:51:26;29.50;43.60
1367;DHT22;16877;48.810;9.282;2023-07-20T05:53:54;29.50;43.60
1367;DHT22;16877;48.810;9.282;2023-07-20T05:56:21;29.60;43.50
1367;DHT22;16877;48.810;9.282;2023-07-20T05:58:48;29.70;43.40
1367;DHT22;16877;48.810;9.282;2023-07-20T06:01:16;29.80;43.40
1367;DHT22;16877;48.810;9.282;2023-07-20T06:03:46;29.90;43.40
1367;DHT22;16877;48.810;9.282;2023-07-20T06:06:14;30.00;43.30
1367;DHT22;16877;48.810;9.282;2023-07-20T06:08:41;30.00;43.30
1367;DHT22;16877;48.810;9.282;2023-07-20T06:11:09;30.10;43.30
1367;DHT22;16877;48.810;9.282;2023-07-20T06:13:35;30.20;43.20
1367;DHT22;16877;48.810;9.282;2023-07-20T06:16:03;30.10;43.00
1367;DHT22;16877;48.810;9.282;2023-07-20T06:18:31;30.00;43.70
1367;DHT22;16877;48.810;9.282;2023-07-20T06:21:14;30.00;43.30
1367;DHT22;16877;48.810;9.282;2023-07-20T06:23:42;30.00;43.10
1367;DHT22;16877;48.810;9.282;2023-07-20T06:26:09;30.00;43.10
1367;DHT22;16877;48.810;9.282;2023-07-20T06:28:37;29.90;42.70
1367;DHT22;16877;48.810;9.282;2023-07-20T06:31:04;29.80;42.90
1367;DHT22;16877;48.810;9.282;2023-07-20T06:33:36;29.60;43.00
1367;DHT22;16877;48.810;9.282;2023-07-20T06:36:04;29.50;43.00
1367;DHT22;16877;48.810;9.282;2023-07-20T06:38:33;29.60;43.20
1367;DHT22;16877;48.810;9.282;2023-07-20T06:41:01;29.60;43.20
1367;DHT22;16877;48.810;9.282;2023-07-20T06:43:28;29.70;43.20
1367;DHT22;16877;48.810;9.282;2023-07-20T06:45:56;29.80;43.10
1367;DHT22;16877;48.810;9.282;2023-07-20T06:48:23;30.00;43.10
1367;DHT22;16877;48.810;9.282;2023-07-20T06:50:51;30.10;42.90
1367;DHT22;16877;48.810;9.282;2023-07-20T06:53:19;30.10;43.00
1367;DHT22;16877;48.810;9.282;2023-07-20T06:55:48;30.20;42.90
1367;DHT22;16877;48.810;9.282;2023-07-20T06:58:16;30.20;43.00
1367;DHT22;16877;48.810;9.282;2023-07-20T07:00:44;30.30;43.00
1367;DHT22;16877;48.810;9.282;2023-07-20T07:03:22;30.30;42.90
1367;DHT22;16877;48.810;9.282;2023-07-20T07:05:54;30.20;42.90
1367;DHT22;16877;48.810;9.282;2023-07-20T07:08:24;30.30;43.00
1367;DHT22;16877;48.810;9.282;2023-07-20T07:10:52;30.30;43.00
1367;DHT22;16877;48.810;9.282;2023-07-20T07:13:19;30.30;43.00
1367;DHT22;16877;48.810;9.282;2023-07-20T07:15:51;30.20;43.00
1367;DHT22;16877;48.810;9.282;2023-07-20T07:18:19;30.10;43.10
1367;DHT22;16877;48.810;9.282;2023-07-20T07:20:52;30.10;43.00
1367;DHT22;16877;48.810;9.282;2023-07-20T07:23:20;30.20;43.30
1367;DHT22;16877;48.810;9.282;2023-07-20T07:25:48;30.20;43.20
1367;DHT22;16877;48.810;9.282;2023-07-20T07:28:18;30.30;43.10
1367;DHT22;16877;48.810;9.282;2023-07-20T07:30:45;30.30;43.00
1367;DHT22;16877;48.810;9.282;2023-07-20T07:33:13;30.30;43.00
1367;DHT22;16877;48.810;9.282;2023-07-20T07:35:40;30.30;42.80
1367;DHT22;16877;48.810;9.282;2023-07-20T07:38:08;30.20;43.20
1367;DHT22;16877;48.810;9.282;2023-07-20T07:40:36;30.20;43.00
1367;DHT22;16877;48.810;9.282;2023-07-20T07:43:04;30.10;43.10
1367;DHT22;16877;48.810;9.282;2023-07-20T07:45:35;30.10;43.30
1367;DHT22;16877;48.810;9.282;2023-07-20T07:48:03;30.10;43.40
1367;DHT22;16877;48.810;9.282;2023-07-20T07:50:31;30.20;43.30
1367;DHT22;16877;48.810;9.282;2023-07-20T07:52:58;30.20;43.20
1367;DHT22;16877;48.810;9.282;2023-07-20T07:55:26;30.20;43.20
1367;DHT22;16877;48.810;9.282;2023-07-20T07:57:53;30.40;43.10
1367;DHT22;16877;48.810;9.282;2023-07-20T08:00:21;30.30;43.00
1367;DHT22;16877;48.810;9.282;2023-07-20T08:02:51;30.20;42.90
1367;DHT22;16877;48.810;9.282;2023-07-20T08:05:19;30.40;42.90
1367;DHT22;16877;48.810;9.282;2023-07-20T08:07:46;30.50;42.80
1367;DHT22;16877;48.810;9.282;2023-07-20T08:10:19;30.40;42.60
1367;DHT22;16877;48.810;9.282;2023-07-20T08:12:47;30.30;42.60
1367;DHT22;16877;48.810;9.282;2023-07-20T08:15:14;30.30;42.60
1367;DHT22;16877;48.810;9.282;2023-07-20T08:17:42;30.30;42.40
1367;DHT22;16877;48.810;9.282;2023-07-20T08:20:13;30.50;42.60
1367;DHT22;16877;48.810;9.282;2023-07-20T08:22:42;30.50;42.50
1367;DHT22;16877;48.810;9.282;2023-07-20T08:25:09;30.60;42.40
1367;DHT22;16877;48.810;9.282;2023-07-20T08:27:41;30.50;42.30
1367;DHT22;16877;48.810;9.282;2023-07-20T08:30:09;30.60;42.40
1367;DHT22;16877;48.810;9.282;2023-07-20T08:32:37;30.50;42.00
1367;DHT22;16877;48.810;9.282;2023-07-20T08:35:06;30.30;41.90
1367;DHT22;16877;48.810;9.282;2023-07-20T08:37:35;30.30;42.00
1367;DHT22;16877;48.810;9.282;2023-07-20T08:40:07;30.30;42.00
1367;DHT22;16877;48.810;9.282;2023-07-20T08:42:35;30.30;42.00
1367;DHT22;16877;48.810;9.282;2023-07-20T08:45:10;30.20;42.40
1367;DHT22;16877;48.810;9.282;2023-07-20T08:47:41;30.10;42.60
1367;DHT22;16877;48.810;9.282;2023-07-20T08:50:11;30.00;42.30
1367;DHT22;16877;48.810;9.282;2023-07-20T08:52:45;30.20;42.50
1367;DHT22;16877;48.810;9.282;2023-07-20T08:55:13;30.50;42.80
1367;DHT22;16877;48.810;9.282;2023-07-20T08:57:46;30.90;42.20
1367;DHT22;16877;48.810;9.282;2023-07-20T09:00:17;31.10;41.50
1367;DHT22;16877;48.810;9.282;2023-07-20T09:02:47;31.40;41.50
1367;DHT22;16877;48.810;9.282;2023-07-20T09:05:15;31.60;41.40
1367;DHT22;16877;48.810;9.282;2023-07-20T09:07:47;31.90;40.70
1367;DHT22;16877;48.810;9.282;2023-07-20T09:10:20;32.10;40.70
1367;DHT22;16877;48.810;9.282;2023-07-20T09:12:55;32.40;40.30
1367;DHT22;16877;48.810;9.282;2023-07-20T09:15:23;32.60;40.00
1367;DHT22;16877;48.810;9.282;2023-07-20T09:17:54;32.60;40.50
1367;DHT22;16877;48.810;9.282;2023-07-20T09:20:22;32.70;40.10
1367;DHT22;16877;48.810;9.282;2023-07-20T09:22:54;32.60;40.20
1367;DHT22;16877;48.810;9.282;2023-07-20T09:25:22;33.10;40.10
1367;DHT22;16877;48.810;9.282;2023-07-20T09:27:51;33.40;39.70
1367;DHT22;16877;48.810;9.282;2023-07-20T09:30:25;33.60;39.10
1367;DHT22;16877;48.810;9.282;2023-07-20T09:33:03;33.90;38.90
1367;DHT22;16877;48.810;9.282;2023-07-20T09:35:44;34.10;38.70
1367;DHT22;16877;48.810;9.282;2023-07-20T09:38:16;34.00;38.40
1367;DHT22;16877;48.810;9.282;2023-07-20T09:40:46;34.20;38.20
1367;DHT22;16877;48.810;9.282;2023-07-20T09:43:15;34.10;38.20
1367;DHT22;16877;48.810;9.282;2023-07-20T09:45:47;33.90;38.30
1367;DHT22;16877;48.810;9.282;2023-07-20T09:48:17;34.00;38.20
1367;DHT22;16877;48.810;9.282;2023-07-20T09:50:49;33.70;38.10
1367;DHT22;16877;48.810;9.282;2023-07-20T09:53:20;33.60;38.10
1367;DHT22;16877;48.810;9.282;2023-07-20T09:55:48;33.50;38.10
1367;DHT22;16877;48.810;9.282;2023-07-20T09:58:16;33.50;38.00
1367;DHT22;16877;48.810;9.282;2023-07-20T10:00:45;34.00;37.80
1367;DHT22;16877;48.810;9.282;2023-07-20T10:03:18;34.40;37.40
1367;DHT22;16877;48.810;9.282;2023-07-20T10:05:52;34.60;37.00
1367;DHT22;16877;48.810;9.282;2023-07-20T10:08:26;34.70;36.60
1367;DHT22;16877;48.810;9.282;2023-07-20T10:10:57;34.70;36.70
1367;DHT22;16877;48.810;9.282;2023-07-20T10:13:29;34.70;36.60
1367;DHT22;16877;48.810;9.282;2023-07-20T10:16:02;34.50;36.70
1367;DHT22;16877;48.810;9.282;2023-07-20T10:18:33;34.40;36.50
1367;DHT22;16877;48.810;9.282;2023-07-20T10:21:02;34.30;36.70
1367;DHT22;16877;48.810;9.282;2023-07-20T10:23:33;34.40;36.10
1367;DHT22;16877;48.810;9.282;2023-07-20T10:26:01;34.30;36.00
1367;DHT22;16877;48.810;9.282;2023-07-20T10:28:28;34.40;36.10
1367;DHT22;16877;48.810;9.282;2023-07-20T10:30:57;34.90;36.10
1367;DHT22;16877;48.810;9.282;2023-07-20T10:33:40;35.30;35.60
1367;DHT22;16877;48.810;9.282;2023-07-20T10:36:07;35.40;35.30
1367;DHT22;16877;48.810;9.282;2023-07-20T10:38:44;35.40;34.80
1367;DHT22;16877;48.810;9.282;2023-07-20T10:41:20;35.70;34.60
1367;DHT22;16877;48.810;9.282;2023-07-20T10:43:48;35.90;34.30
1367;DHT22;16877;48.810;9.282;2023-07-20T10:46:33;36.10;33.90
1367;DHT22;16877;48.810;9.282;2023-07-20T10:49:05;36.10;34.00
1367;DHT22;16877;48.810;9.282;2023-07-20T10:51:39;36.10;33.80
1367;DHT22;16877;48.810;9.282;2023-07-20T10:54:33;36.00;33.50
1367;DHT22;16877;48.810;9.282;2023-07-20T10:57:23;36.20;33.30
1367;DHT22;16877;48.810;9.282;2023-07-20T10:59:50;36.30;32.80
1367;DHT22;16877;48.810;9.282;2023-07-20T11:02:19;36.00;33.10
1367;DHT22;16877;48.810;9.282;2023-07-20T11:04:47;35.90;33.30
1367;DHT22;16877;48.810;9.282;2023-07-20T11:07:16;35.70;33.10
1367;DHT22;16877;48.810;9.282;2023-07-20T11:09:46;35.80;33.20
1367;DHT22;16877;48.810;9.282;2023-07-20T11:12:17;35.90;33.00
1367;DHT22;16877;48.810;9.282;2023-07-20T11:14:53;36.30;32.80
1367;DHT22;16877;48.810;9.282;2023-07-20T11:17:29;36.60;32.50
1367;DHT22;16877;48.810;9.282;2023-07-20T11:19:56;36.80;32.20
1367;DHT22;16877;48.810;9.282;2023-07-20T11:22:24;36.90;32.00
1367;DHT22;16877;48.810;9.282;2023-07-20T11:24:55;37.30;32.10
1367;DHT22;16877;48.810;9.282;2023-07-20T11:27:22;37.30;32.00
1367;DHT22;16877;48.810;9.282;2023-07-20T11:29:49;36.90;31.70
1367;DHT22;16877;48.810;9.282;2023-07-20T11:32:20;37.00;31.80
1367;DHT22;16877;48.810;9.282;2023-07-20T11:34:50;37.00;31.60
1367;DHT22;16877;48.810;9.282;2023-07-20T11:37:17;37.50;31.60
1367;DHT22;16877;48.810;9.282;2023-07-20T11:39:45;37.40;31.50
1367;DHT22;16877;48.810;9.282;2023-07-20T11:42:19;37.80;31.70
1367;DHT22;16877;48.810;9.282;2023-07-20T11:44:51;38.30;31.10
1367;DHT22;16877;48.810;9.282;2023-07-20T11:47:18;38.50;31.10
1367;DHT22;16877;48.810;9.282;2023-07-20T11:49:46;38.80;31.00
1367;DHT22;16877;48.810;9.282;2023-07-20T11:52:18;39.20;30.90
1367;DHT22;16877;48.810;9.282;2023-07-20T11:54:46;39.50;30.40
1367;DHT22;16877;48.810;9.282;2023-07-20T11:57:17;39.60;30.00
1367;DHT22;16877;48.810;9.282;2023-07-20T11:59:53;39.70;29.70
1367;DHT22;16877;48.810;9.282;2023-07-20T12:02:22;40.00;29.40
1367;DHT22;16877;48.810;9.282;2023-07-20T12:04:51;39.30;29.50
1367;DHT22;16877;48.810;9.282;2023-07-20T12:07:20;39.20;29.80
1367;DHT22;16877;48.810;9.282;2023-07-20T12:10:06;39.60;29.60
1367;DHT22;16877;48.810;9.282;2023-07-20T12:13:05;39.90;29.30
1367;DHT22;16877;48.810;9.282;2023-07-20T12:15:46;40.20;29.10
1367;DHT22;16877;48.810;9.282;2023-07-20T12:18:37;40.50;29.50
1367;DHT22;16877;48.810;9.282;2023-07-20T12:21:06;40.70;29.20
1367;DHT22;16877;48.810;9.282;2023-07-20T12:23:38;40.80;29.00
1367;DHT22;16877;48.810;9.282;2023-07-20T12:26:10;40.80;29.40
1367;DHT22;16877;48.810;9.282;2023-07-20T12:28:53;40.90;28.70
1367;DHT22;16877;48.810;9.282;2023-07-20T12:31:20;40.40;28.40
1367;DHT22;16877;48.810;9.282;2023-07-20T12:33:49;40.30;28.60
1367;DHT22;16877;48.810;9.282;2023-07-20T12:36:21;40.40;28.60
1367;DHT22;16877;48.810;9.282;2023-07-20T12:38:54;40.60;28.50
1367;DHT22;16877;48.810;9.282;2023-07-20T12:41:24;40.80;28.50
1367;DHT22;16877;48.810;9.282;2023-07-20T12:43:53;41.10;28.60
1367;DHT22;16877;48.810;9.282;2023-07-20T12:46:27;41.30;28.60
1367;DHT22;16877;48.810;9.282;2023-07-20T12:48:56;41.40;28.40
1367;DHT22;16877;48.810;9.282;2023-07-20T12:51:23;41.60;28.30
1367;DHT22;16877;48.810;9.282;2023-07-20T12:53:51;41.80;28.30
1367;DHT22;16877;48.810;9.282;2023-07-20T12:56:33;41.60;28.30
1367;DHT22;16877;48.810;9.282;2023-07-20T12:59:08;41.20;28.40
1367;DHT22;16877;48.810;9.282;2023-07-20T13:01:36;41.10;28.20
1367;DHT22;16877;48.810;9.282;2023-07-20T13:04:03;40.90;28.30
1367;DHT22;16877;48.810;9.282;2023-07-20T13:06:31;41.40;28.50
1367;DHT22;16877;48.810;9.282;2023-07-20T13:09:00;41.80;28.60
1367;DHT22;16877;48.810;9.282;2023-07-20T13:11:27;42.00;28.20
1367;DHT22;16877;48.810;9.282;2023-07-20T13:13:55;42.20;28.10
1367;DHT22;16877;48.810;9.282;2023-07-20T13:16:24;42.30;27.80
1367;DHT22;16877;48.810;9.282;2023-07-20T13:18:54;42.50;27.40
1367;DHT22;16877;48.810;9.282;2023-07-20T13:21:21;42.60;27.30
1367;DHT22;16877;48.810;9.282;2023-07-20T13:23:50;42.50;27.10
1367;DHT22;16877;48.810;9.282;2023-07-20T13:26:18;42.30;27.00
1367;DHT22;16877;48.810;9.282;2023-07-20T13:28:45;42.40;27.30
1367;DHT22;16877;48.810;9.282;2023-07-20T13:31:12;42.30;27.30
1367;DHT22;16877;48.810;9.282;2023-07-20T13:33:44;42.30;27.40
1367;DHT22;16877;48.810;9.282;2023-07-20T13:36:12;42.40;27.10
1367;DHT22;16877;48.810;9.282;2023-07-20T13:38:41;42.40;27.20
1367;DHT22;16877;48.810;9.282;2023-07-20T13:41:09;42.30;27.10
1367;DHT22;16877;48.810;9.282;2023-07-20T13:43:36;42.60;27.30
1367;DHT22;16877;48.810;9.282;2023-07-20T13:46:12;42.40;27.30
1367;DHT22;16877;48.810;9.282;2023-07-20T13:48:39;42.50;27.40
1367;DHT22;16877;48.810;9.282;2023-07-20T13:51:08;42.70;27.50
1367;DHT22;16877;48.810;9.282;2023-07-20T13:53:36;42.90;27.10
1367;DHT22;16877;48.810;9.282;2023-07-20T13:56:03;42.90;27.10
1367;DHT22;16877;48.810;9.282;2023-07-20T13:58:31;43.10;26.90
1367;DHT22;16877;48.810;9.282;2023-07-20T14:00:59;42.90;26.50
1367;DHT22;16877;48.810;9.282;2023-07-20T14:03:31;43.00;26.70
1367;DHT22;16877;48.810;9.282;2023-07-20T14:05:59;43.20;26.90
1367;DHT22;16877;48.810;9.282;2023-07-20T14:08:28;43.30;26.90
1367;DHT22;16877;48.810;9.282;2023-07-20T14:10:55;43.60;27.00
1367;DHT22;16877;48.810;9.282;2023-07-20T14:13:23;43.80;26.80
1367;DHT22;16877;48.810;9.282;2023-07-20T14:15:50;43.90;26.60
1367;DHT22;16877;48.810;9.282;2023-07-20T14:18:18;44.10;26.80
1367;DHT22;16877;48.810;9.282;2023-07-20T14:20:45;44.10;26.70
1367;DHT22;16877;48.810;9.282;2023-07-20T14:23:13;44.20;26.50
1367;DHT22;16877;48.810;9.282;2023-07-20T14:25:56;44.00;25.50
1367;DHT22;16877;48.810;9.282;2023-07-20T14:28:24;43.00;25.00
1367;DHT22;16877;48.810;9.282;2023-07-20T14:30:52;38.70;24.70
1367;DHT22;16877;48.810;9.282;2023-07-20T14:33:19;36.50;26.00
1367;DHT22;16877;48.810;9.282;2023-07-20T14:35:47;35.70;27.50
1367;DHT22;16877;48.810;9.282;2023-07-20T14:38:15;36.40;28.00
1367;DHT22;16877;48.810;9.282;2023-07-20T14:40:42;37.30;27.80
1367;DHT22;16877;48.810;9.282;2023-07-20T14:43:12;38.00;27.60
1367;DHT22;16877;48.810;9.282;2023-07-20T14:45:40;38.40;27.70
1367;DHT22;16877;48.810;9.282;2023-07-20T14:48:07;38.90;27.40
1367;DHT22;16877;48.810;9.282;2023-07-20T14:50:35;39.20;27.10
1367;DHT22;16877;48.810;9.282;2023-07-20T14:53:02;39.20;26.70
1367;DHT22;16877;48.810;9.282;2023-07-20T14:55:31;39.00;27.10
1367;DHT22;16877;48.810;9.282;2023-07-20T14:58:00;38.60;26.50
1367;DHT22;16877;48.810;9.282;2023-07-20T15:00:30;38.20;26.50
1367;DHT22;16877;48.810;9.282;2023-07-20T15:02:58;38.20;26.80
1367;DHT22;16877;48.810;9.282;2023-07-20T15:05:26;37.40;26.50
1367;DHT22;16877;48.810;9.282;2023-07-20T15:07:54;37.40;26.80
1367;DHT22;16877;48.810;9.282;2023-07-20T15:10:21;37.30;27.00
1367;DHT22;16877;48.810;9.282;2023-07-20T15:12:49;37.70;27.40
1367;DHT22;16877;48.810;9.282;2023-07-20T15:15:16;37.80;27.20
1367;DHT22;16877;48.810;9.282;2023-07-20T15:17:45;38.10;27.00
1367;DHT22;16877;48.810;9.282;2023-07-20T15:20:13;37.60;26.90
1367;DHT22;16877;48.810;9.282;2023-07-20T15:22:40;37.80;27.00
1367;DHT22;16877;48.810;9.282;2023-07-20T15:25:12;37.70;27.30
1367;DHT22;16877;48.810;9.282;2023-07-20T15:27:40;37.70;27.30
1367;DHT22;16877;48.810;9.282;2023-07-20T15:30:10;37.60;27.10
1367;DHT22;16877;48.810;9.282;2023-07-20T15:32:37;37.50;27.20
1367;DHT22;16877;48.810;9.282;2023-07-20T15:35:08;37.90;27.50
1367;DHT22;16877;48.810;9.282;2023-07-20T15:37:36;37.80;27.00
1367;DHT22;16877;48.810;9.282;2023-07-20T15:40:05;37.80;27.10
1367;DHT22;16877;48.810;9.282;2023-07-20T15:42:33;37.90;27.10
1367;DHT22;16877;48.810;9.282;2023-07-20T15:45:16;37.20;27.20
1367;DHT22;16877;48.810;9.282;2023-07-20T15:47:43;37.20;27.30
1367;DHT22;16877;48.810;9.282;2023-07-20T15:50:13;37.10;27.40
1367;DHT22;16877;48.810;9.282;2023-07-20T15:52:42;37.00;27.40
1367;DHT22;16877;48.810;9.282;2023-07-20T15:55:10;36.60;27.10
1367;DHT22;16877;48.810;9.282;2023-07-20T15:57:38;36.20;27.10
1367;DHT22;16877;48.810;9.282;2023-07-20T16:00:07;36.20;27.60
1367;DHT22;16877;48.810;9.282;2023-07-20T16:02:35;36.30;27.80